createdAt,value
2019-01-22T00:00:59.586Z,2.38
2019-01-22T00:03:29.278Z,2.40
2019-01-22T00:05:58.819Z,2.49
2019-01-22T00:08:28.365Z,2.48
2019-01-22T00:10:57.899Z,2.52
2019-01-22T00:13:27.540Z,2.54
2019-01-22T00:15:57.089Z,2.51
2019-01-22T00:18:26.649Z,2.53
2019-01-22T00:20:56.240Z,2.54
2019-01-22T00:23:26.044Z,2.56
2019-01-22T00:25:55.593Z,2.57
2019-01-22T00:28:25.456Z,2.57
2019-01-22T00:30:55.086Z,2.52
2019-01-22T00:33:24.987Z,2.55
2019-01-22T00:35:55.383Z,2.52
2019-01-22T00:38:24.938Z,2.54
2019-01-22T00:40:55.824Z,2.58
2019-01-22T00:43:25.371Z,2.57
2019-01-22T00:45:54.936Z,2.56
2019-01-22T00:48:24.947Z,2.62
2019-01-22T00:50:54.545Z,2.68
2019-01-22T00:53:24.097Z,2.55
2019-01-22T00:55:53.666Z,2.56
2019-01-22T00:58:23.307Z,2.62
2019-01-22T01:00:52.846Z,2.62
2019-01-22T01:03:22.418Z,2.66
2019-01-22T01:05:53.584Z,2.65
2019-01-22T01:08:23.240Z,2.73
2019-01-22T01:10:52.872Z,2.70
2019-01-22T01:13:22.466Z,2.71
2019-01-22T01:15:52.008Z,2.67
2019-01-22T01:18:21.559Z,2.72
2019-01-22T01:20:51.103Z,2.74
2019-01-22T01:23:20.704Z,2.75
2019-01-22T01:25:50.265Z,2.72
2019-01-22T01:28:20.093Z,2.68
2019-01-22T01:30:49.735Z,2.76
2019-01-22T01:33:19.298Z,2.73
2019-01-22T01:35:48.894Z,2.68
2019-01-22T01:38:18.562Z,2.60
2019-01-22T01:40:48.131Z,2.60
2019-01-22T01:43:17.793Z,2.56
2019-01-22T01:45:47.406Z,2.57
2019-01-22T01:48:17.031Z,2.60
2019-01-22T01:50:46.633Z,2.58
2019-01-22T01:53:16.236Z,2.57
2019-01-22T01:55:45.865Z,2.64
2019-01-22T01:58:15.519Z,2.62
2019-01-22T02:00:45.043Z,2.64
2019-01-22T02:03:14.685Z,2.60
2019-01-22T02:05:44.346Z,2.57
2019-01-22T02:08:14.061Z,2.55
2019-01-22T02:10:43.593Z,2.57
2019-01-22T02:13:15.870Z,2.58
2019-01-22T02:16:18.433Z,2.57
2019-01-22T02:19:10.435Z,2.50
2019-01-22T02:22:06.202Z,2.50
2019-01-22T02:24:48.773Z,2.42
2019-01-22T02:27:49.672Z,2.28
2019-01-22T02:30:36.825Z,2.24
2019-01-22T02:33:32.284Z,2.24
2019-01-22T02:36:35.936Z,2.22
2019-01-22T02:39:41.309Z,2.22
2019-01-22T02:42:26.561Z,2.21
2019-01-22T02:45:32.637Z,2.12
2019-01-22T02:48:24.328Z,2.04
2019-01-22T02:51:26.673Z,1.93
2019-01-22T02:54:14.192Z,1.86
2019-01-22T02:57:29.985Z,1.81
2019-01-22T03:00:50.959Z,1.79
2019-01-22T03:04:04.945Z,1.80
2019-01-22T03:07:20.373Z,1.80
2019-01-22T03:10:14.826Z,1.83
2019-01-22T03:13:18.442Z,1.87
2019-01-22T03:16:23.718Z,1.89
2019-01-22T03:19:15.365Z,1.90
2019-01-22T03:22:17.000Z,1.94
2019-01-22T03:25:13.725Z,2.04
2019-01-22T03:28:16.412Z,2.14
2019-01-22T03:31:30.527Z,2.21
2019-01-22T03:34:47.015Z,2.29
2019-01-22T03:38:15.423Z,2.31
2019-01-22T03:41:00.709Z,2.34
2019-01-22T03:44:05.270Z,2.38
2019-01-22T03:47:31.597Z,2.43
2019-01-22T03:50:15.155Z,2.44
2019-01-22T03:53:33.419Z,2.47
2019-01-22T03:56:30.200Z,2.53
2019-01-22T03:58:59.778Z,2.55
2019-01-22T04:01:30.955Z,2.57
2019-01-22T04:04:00.720Z,2.57
2019-01-22T04:06:39.479Z,2.59
2019-01-22T04:09:27.914Z,2.59
2019-01-22T04:11:57.501Z,2.61
2019-01-22T04:14:27.092Z,2.65
2019-01-22T04:16:57.749Z,2.66
2019-01-22T04:19:27.372Z,2.70
2019-01-22T04:21:56.908Z,2.74
2019-01-22T04:25:09.634Z,2.67
2019-01-22T04:28:19.337Z,2.71
2019-01-22T04:31:10.626Z,2.70
2019-01-22T04:34:15.783Z,2.67
2019-01-22T04:37:24.738Z,2.60
2019-01-22T04:40:30.129Z,2.56
2019-01-22T04:43:55.801Z,2.56
2019-01-22T04:46:53.435Z,2.53
2019-01-22T04:49:51.776Z,2.43
2019-01-22T04:52:52.724Z,2.31
2019-01-22T04:55:55.371Z,2.11
2019-01-22T04:59:10.727Z,1.86
2019-01-22T05:02:17.962Z,1.66
2019-01-22T05:05:01.086Z,1.54
2019-01-22T05:08:04.817Z,1.41
2019-01-22T05:11:04.804Z,1.33
2019-01-22T05:14:11.834Z,1.22
2019-01-22T05:17:28.245Z,1.16
2019-01-22T05:20:25.961Z,1.09
2019-01-22T05:23:44.914Z,0.96
2019-01-22T05:26:38.671Z,0.90
2019-01-22T05:29:49.543Z,0.85
2019-01-22T05:32:55.625Z,0.79
2019-01-22T05:36:02.683Z,0.79
2019-01-22T05:39:04.976Z,0.79
2019-01-22T05:42:05.476Z,0.72
2019-01-22T05:45:06.045Z,0.69
2019-01-22T05:48:13.480Z,0.70
2019-01-22T05:51:02.408Z,0.65
2019-01-22T05:53:53.591Z,0.71
2019-01-22T05:56:41.463Z,0.78
2019-01-22T05:59:43.901Z,0.79
2019-01-22T06:02:41.303Z,0.85
2019-01-22T06:06:06.709Z,0.90
2019-01-22T06:08:46.752Z,0.93
2019-01-22T06:11:41.759Z,1.05
2019-01-22T06:14:42.404Z,1.15
2019-01-22T06:17:33.946Z,1.23
2019-01-22T06:20:49.304Z,1.35
2019-01-22T06:23:55.870Z,1.43
2019-01-22T06:26:55.548Z,1.61
2019-01-22T06:29:49.395Z,1.76
2019-01-22T06:32:52.307Z,1.93
2019-01-22T06:35:51.144Z,2.13
2019-01-22T06:38:34.619Z,2.37
2019-01-22T06:41:40.939Z,2.60
2019-01-22T06:44:50.250Z,2.77
2019-01-22T06:47:53.839Z,3.01
2019-01-22T06:50:59.918Z,3.23
2019-01-22T06:53:54.319Z,3.52
2019-01-22T06:56:39.306Z,3.79
2019-01-22T06:59:48.184Z,4.05
2019-01-22T07:02:51.813Z,4.27
2019-01-22T07:06:01.186Z,4.37
2019-01-22T07:09:16.461Z,4.37
2019-01-22T07:12:35.732Z,4.46
2019-01-22T07:15:41.483Z,4.55
2019-01-22T07:18:35.122Z,4.52
2019-01-22T07:21:47.366Z,4.71
2019-01-22T07:24:46.873Z,4.94
2019-01-22T07:27:33.965Z,5.27
2019-01-22T07:30:43.035Z,5.59
2019-01-22T07:33:40.205Z,5.75
2019-01-22T07:36:46.519Z,5.87
2019-01-22T07:39:23.537Z,5.88
2019-01-22T07:42:10.196Z,5.86
2019-01-22T07:45:06.654Z,6.09
2019-01-22T07:48:07.679Z,6.03
2019-01-22T07:51:05.968Z,6.20
2019-01-22T07:54:14.894Z,6.00
2019-01-22T07:57:34.587Z,6.15
2019-01-22T08:00:33.388Z,6.35
2019-01-22T08:04:09.836Z,6.30
2019-01-22T08:07:12.112Z,6.36
2019-01-22T08:10:17.098Z,6.25
2019-01-22T08:13:33.379Z,6.15
2019-01-22T08:16:49.627Z,6.23
2019-01-22T08:19:48.994Z,6.21
2019-01-22T08:23:11.510Z,6.15
2019-01-22T08:26:28.044Z,6.21
2019-01-22T08:29:51.354Z,6.42
2019-01-22T08:32:58.936Z,6.57
2019-01-22T08:36:04.923Z,6.65
2019-01-22T08:38:52.291Z,6.56
2019-01-22T08:41:42.836Z,6.66
2019-01-22T08:44:40.466Z,6.66
2019-01-22T08:47:19.077Z,6.73
2019-01-22T08:50:11.289Z,6.83
2019-01-22T08:53:14.072Z,6.84
2019-01-22T08:56:27.152Z,6.87
2019-01-22T08:59:30.088Z,7.00
2019-01-22T09:02:52.383Z,7.04
2019-01-22T09:05:42.107Z,7.11
2019-01-22T09:08:39.783Z,7.07
2019-01-22T09:12:02.675Z,7.10
2019-01-22T09:14:51.720Z,7.13
2019-01-22T09:18:08.396Z,7.40
2019-01-22T09:21:06.404Z,7.54
2019-01-22T09:24:17.880Z,7.37
2019-01-22T09:27:37.000Z,7.45
2019-01-22T09:30:35.212Z,7.63
2019-01-22T09:33:13.381Z,7.93
2019-01-22T09:36:19.016Z,8.17
2019-01-22T09:38:48.695Z,8.38
2019-01-22T09:41:18.289Z,8.58
2019-01-22T09:43:47.890Z,8.79
2019-01-22T09:46:17.556Z,8.89
2019-01-22T09:48:47.073Z,9.06
2019-01-22T09:51:16.612Z,8.95
2019-01-22T09:53:46.147Z,8.93
2019-01-22T09:56:15.769Z,8.73
2019-01-22T09:58:45.495Z,8.65
2019-01-22T10:01:15.032Z,8.67
2019-01-22T10:03:44.659Z,8.52
2019-01-22T10:06:14.270Z,8.58
2019-01-22T10:08:46.089Z,8.62
2019-01-22T10:11:15.794Z,8.58
2019-01-22T10:13:48.328Z,8.47
2019-01-22T10:16:16.863Z,8.28
2019-01-22T10:18:46.473Z,8.16
2019-01-22T10:21:16.010Z,8.04
2019-01-22T10:23:46.892Z,7.78
2019-01-22T10:26:16.560Z,7.83
2019-01-22T10:28:46.100Z,7.83
2019-01-22T10:31:15.633Z,7.79
2019-01-22T10:33:45.777Z,7.92
2019-01-22T10:36:15.359Z,8.08
2019-01-22T10:38:47.508Z,8.06
2019-01-22T10:41:17.074Z,8.27
2019-01-22T10:43:46.655Z,8.37
2019-01-22T10:46:16.277Z,8.35
2019-01-22T10:48:45.994Z,8.44
2019-01-22T10:51:15.624Z,8.36
2019-01-22T10:53:45.311Z,8.51
2019-01-22T10:56:14.873Z,8.68
2019-01-22T10:58:44.522Z,8.72
2019-01-22T11:01:14.274Z,8.73
2019-01-22T11:03:43.845Z,8.70
2019-01-22T11:06:13.493Z,8.80
2019-01-22T11:08:43.010Z,8.46
2019-01-22T11:11:12.564Z,8.47
2019-01-22T11:13:42.183Z,8.41
2019-01-22T11:16:11.784Z,8.41
2019-01-22T11:18:41.302Z,8.45
2019-01-22T11:21:10.885Z,8.60
2019-01-22T11:23:40.455Z,8.53
2019-01-22T11:26:09.989Z,8.65
2019-01-22T11:28:39.621Z,8.87
2019-01-22T11:31:09.165Z,9.01
2019-01-22T11:33:38.832Z,9.15
2019-01-22T11:36:08.604Z,9.30
2019-01-22T11:38:38.202Z,10.04
2019-01-22T11:41:07.861Z,10.83
2019-01-22T11:43:37.389Z,11.80
2019-01-22T11:46:07.000Z,12.51
2019-01-22T11:48:36.701Z,13.28
2019-01-22T11:51:06.699Z,12.94
2019-01-22T11:53:36.305Z,12.88
2019-01-22T11:56:05.877Z,13.55
2019-01-22T11:58:35.554Z,13.53
2019-01-22T12:01:05.667Z,13.09
2019-01-22T12:03:35.335Z,12.53
2019-01-22T12:06:04.989Z,12.01
2019-01-22T12:08:34.541Z,12.09
2019-01-22T12:11:04.181Z,12.01
2019-01-22T12:13:34.052Z,11.70
2019-01-22T12:16:03.612Z,11.18
2019-01-22T12:18:33.140Z,11.13
2019-01-22T12:21:02.681Z,11.09
2019-01-22T12:23:32.311Z,11.03
2019-01-22T12:26:01.924Z,10.77
2019-01-22T12:28:31.724Z,10.58
2019-01-22T12:31:01.436Z,10.56
2019-01-22T12:33:31.110Z,10.33
2019-01-22T12:36:00.658Z,10.20
2019-01-22T12:38:30.226Z,10.21
2019-01-22T12:40:59.811Z,10.17
2019-01-22T12:43:29.470Z,10.19
2019-01-22T12:45:59.126Z,9.96
2019-01-22T12:48:28.717Z,9.95
2019-01-22T12:50:58.408Z,9.94
2019-01-22T12:53:28.220Z,9.84
2019-01-22T12:56:04.232Z,9.83
2019-01-22T12:58:29.581Z,9.66
2019-01-22T13:00:59.224Z,9.69
2019-01-22T13:03:28.902Z,9.80
2019-01-22T13:06:06.234Z,9.67
2019-01-22T13:08:35.908Z,9.52
2019-01-22T13:11:05.987Z,9.39
2019-01-22T13:13:35.501Z,9.34
2019-01-22T13:16:05.086Z,9.26
2019-01-22T13:18:35.184Z,9.18
2019-01-22T13:21:04.871Z,9.03
2019-01-22T13:23:34.455Z,9.05
2019-01-22T13:26:04.067Z,9.10
2019-01-22T13:28:33.720Z,9.14
2019-01-22T13:31:03.264Z,9.22
2019-01-22T13:33:32.846Z,9.45
2019-01-22T13:36:02.608Z,9.49
2019-01-22T13:38:32.193Z,9.43
2019-01-22T13:41:01.751Z,9.48
2019-01-22T13:43:31.290Z,9.32
2019-01-22T13:46:00.897Z,9.34
2019-01-22T13:48:30.423Z,9.37
2019-01-22T13:51:00.053Z,9.24
2019-01-22T13:53:29.589Z,9.12
2019-01-22T13:55:59.357Z,9.03
2019-01-22T13:58:28.981Z,8.98
2019-01-22T14:00:58.593Z,8.91
2019-01-22T14:03:28.179Z,8.78
2019-01-22T14:05:57.723Z,8.70
2019-01-22T14:08:27.365Z,8.66
2019-01-22T14:10:56.945Z,8.57
2019-01-22T14:13:26.612Z,8.50
2019-01-22T14:15:56.213Z,8.32
2019-01-22T14:18:25.754Z,8.28
2019-01-22T14:20:55.270Z,8.19
2019-01-22T14:23:24.972Z,8.06
2019-01-22T14:25:54.509Z,7.95
2019-01-22T14:28:24.084Z,7.81
2019-01-22T14:30:53.656Z,7.71
2019-01-22T14:33:23.201Z,7.64
2019-01-22T14:35:52.754Z,7.61
2019-01-22T14:38:22.304Z,7.48
2019-01-22T14:40:51.984Z,7.36
2019-01-22T14:43:21.640Z,7.30
2019-01-22T14:45:51.153Z,7.23
2019-01-22T14:48:20.921Z,7.14
2019-01-22T14:50:50.777Z,7.05
2019-01-22T14:53:20.332Z,7.08
2019-01-22T14:55:49.968Z,7.01
2019-01-22T14:58:19.613Z,6.93
2019-01-22T15:00:49.163Z,6.84
2019-01-22T15:03:18.709Z,6.73
2019-01-22T15:05:48.325Z,6.69
2019-01-22T15:08:17.911Z,6.66
2019-01-22T15:10:47.552Z,6.62
2019-01-22T15:13:18.445Z,6.55
2019-01-22T15:15:48.234Z,6.57
2019-01-22T15:18:17.827Z,6.59
2019-01-22T15:20:47.361Z,6.51
2019-01-22T15:23:17.004Z,6.45
2019-01-22T15:25:46.538Z,6.43
2019-01-22T15:28:16.521Z,6.39
2019-01-22T15:30:47.214Z,6.40
2019-01-22T15:33:18.310Z,6.35
2019-01-22T15:35:48.988Z,6.31
2019-01-22T15:38:19.869Z,6.23
2019-01-22T15:40:49.469Z,6.22
2019-01-22T15:43:19.003Z,6.19
2019-01-22T15:45:48.603Z,6.12
2019-01-22T15:48:18.612Z,6.16
2019-01-22T15:50:50.487Z,6.13
2019-01-22T15:53:21.526Z,6.09
2019-01-22T15:55:51.352Z,6.10
2019-01-22T15:58:20.945Z,6.15
2019-01-22T16:00:53.390Z,6.16
2019-01-22T16:03:23.067Z,6.15
2019-01-22T16:05:52.688Z,6.13
2019-01-22T16:08:22.277Z,6.18
2019-01-22T16:10:53.275Z,6.21
2019-01-22T16:13:22.830Z,6.23
2019-01-22T16:15:52.471Z,6.20
2019-01-22T16:18:23.379Z,6.25
2019-01-22T16:20:52.996Z,6.25
2019-01-22T16:23:22.602Z,6.16
2019-01-22T16:25:52.232Z,6.21
2019-01-22T16:28:21.761Z,6.16
2019-01-22T16:30:51.522Z,6.24
2019-01-22T16:33:21.186Z,6.27
2019-01-22T16:35:50.876Z,6.31
2019-01-22T16:38:20.544Z,6.31
2019-01-22T16:40:50.172Z,6.30
2019-01-22T16:43:19.751Z,6.33
2019-01-22T16:45:49.376Z,6.37
2019-01-22T16:48:19.025Z,6.40
2019-01-22T16:50:48.634Z,6.35
2019-01-22T16:53:20.540Z,6.42
2019-01-22T16:55:50.248Z,6.44
2019-01-22T16:58:19.806Z,6.42
2019-01-22T17:00:49.328Z,6.36
2019-01-22T17:03:21.988Z,6.50
2019-01-22T17:05:54.434Z,6.45
2019-01-22T17:08:25.550Z,6.48
2019-01-22T17:10:56.397Z,6.45
2019-01-22T17:13:26.070Z,6.35
2019-01-22T17:15:55.686Z,6.37
2019-01-22T17:18:29.659Z,6.41
2019-01-22T17:20:59.228Z,6.42
2019-01-22T17:23:28.772Z,6.51
2019-01-22T17:25:58.356Z,6.53
2019-01-22T17:28:28.073Z,6.48
2019-01-22T17:30:57.885Z,6.50
2019-01-22T17:33:35.508Z,6.53
2019-01-22T17:36:05.107Z,6.43
2019-01-22T17:38:34.640Z,6.34
2019-01-22T17:41:04.201Z,6.22
2019-01-22T17:43:37.878Z,6.16
2019-01-22T17:46:07.497Z,6.08
2019-01-22T17:48:37.448Z,6.07
2019-01-22T17:51:07.028Z,6.02
2019-01-22T17:53:36.663Z,5.93
2019-01-22T17:56:06.247Z,5.90
2019-01-22T17:58:35.800Z,5.85
2019-01-22T18:01:05.445Z,5.80
2019-01-22T18:03:34.977Z,5.89
2019-01-22T18:06:04.572Z,5.90
2019-01-22T18:08:34.326Z,5.95
2019-01-22T18:11:03.873Z,6.01
2019-01-22T18:13:33.410Z,6.04
2019-01-22T18:16:03.053Z,6.04
2019-01-22T18:18:32.601Z,6.00
2019-01-22T18:21:02.267Z,6.00
2019-01-22T18:23:31.792Z,6.01
2019-01-22T18:26:03.676Z,5.98
2019-01-22T18:28:33.508Z,5.96
2019-01-22T18:31:03.124Z,6.00
2019-01-22T18:33:32.651Z,5.95
2019-01-22T18:36:02.195Z,5.88
2019-01-22T18:38:31.756Z,5.89
2019-01-22T18:41:01.324Z,5.75
2019-01-22T18:43:30.881Z,6.07
2019-01-22T18:46:00.428Z,6.13
2019-01-22T18:48:30.042Z,6.22
2019-01-22T18:50:59.619Z,6.27
2019-01-22T18:53:29.140Z,6.31
2019-01-22T18:55:58.768Z,6.27
2019-01-22T18:58:28.363Z,6.30
2019-01-22T19:00:57.923Z,6.31
2019-01-22T19:03:27.462Z,6.33
2019-01-22T19:05:56.992Z,6.34
2019-01-22T19:08:26.646Z,6.30
2019-01-22T19:10:57.196Z,6.23
2019-01-22T19:13:26.764Z,6.22
2019-01-22T19:15:56.336Z,6.23
2019-01-22T19:18:25.956Z,6.16
2019-01-22T19:20:55.494Z,6.12
2019-01-22T19:23:25.051Z,6.23
2019-01-22T19:25:54.669Z,6.24
2019-01-22T19:28:24.217Z,6.20
2019-01-22T19:30:53.752Z,6.24
2019-01-22T19:33:23.316Z,6.33
2019-01-22T19:35:52.840Z,6.36
2019-01-22T19:38:22.715Z,6.38
2019-01-22T19:40:52.295Z,6.46
2019-01-22T19:43:21.887Z,6.67
2019-01-22T19:45:51.439Z,6.72
2019-01-22T19:48:21.042Z,6.72
2019-01-22T19:50:50.858Z,6.69
2019-01-22T19:53:20.500Z,6.72
2019-01-22T19:55:50.151Z,6.63
2019-01-22T19:58:19.691Z,6.62
2019-01-22T20:00:49.259Z,6.56
2019-01-22T20:03:18.845Z,6.51
2019-01-22T20:05:48.778Z,6.55
2019-01-22T20:08:18.421Z,6.44
2019-01-22T20:10:48.002Z,6.43
2019-01-22T20:13:17.534Z,6.42
2019-01-22T20:15:47.371Z,6.51
2019-01-22T20:18:17.116Z,6.54
2019-01-22T20:20:46.707Z,6.57
2019-01-22T20:23:16.288Z,6.53
2019-01-22T20:25:45.934Z,6.38
2019-01-22T20:28:15.603Z,6.20
2019-01-22T20:30:48.476Z,6.00
2019-01-22T20:33:16.531Z,5.88
2019-01-22T20:35:46.093Z,5.81
2019-01-22T20:38:15.797Z,5.73
2019-01-22T20:40:45.460Z,5.72
2019-01-22T20:43:15.109Z,5.66
2019-01-22T20:45:44.685Z,5.64
2019-01-22T20:48:14.391Z,5.64
2019-01-22T20:50:44.262Z,5.68
2019-01-22T20:53:13.866Z,5.70
2019-01-22T20:55:43.866Z,5.94
2019-01-22T20:58:13.422Z,5.92
2019-01-22T21:00:42.975Z,5.91
2019-01-22T21:03:12.523Z,5.90
2019-01-22T21:05:42.064Z,5.85
2019-01-22T21:08:11.776Z,5.79
2019-01-22T21:10:41.456Z,5.78
2019-01-22T21:13:18.507Z,5.70
2019-01-22T21:15:48.085Z,5.67
2019-01-22T21:18:17.642Z,5.59
2019-01-22T21:20:47.282Z,5.62
2019-01-22T21:23:16.910Z,5.54
2019-01-22T21:25:46.448Z,5.62
2019-01-22T21:28:16.372Z,5.60
2019-01-22T21:30:46.119Z,5.75
2019-01-22T21:33:15.655Z,5.89
2019-01-22T21:35:45.274Z,6.10
2019-01-22T21:38:14.937Z,6.41
2019-01-22T21:40:44.513Z,6.60
2019-01-22T21:43:14.186Z,6.63
2019-01-22T21:45:44.136Z,6.70
2019-01-22T21:48:13.776Z,6.73
2019-01-22T21:50:43.345Z,6.70
2019-01-22T21:53:12.883Z,6.75
2019-01-22T21:55:42.430Z,6.79
2019-01-22T21:58:12.034Z,6.83
2019-01-22T22:00:41.574Z,6.88
2019-01-22T22:03:11.124Z,6.87
2019-01-22T22:05:40.684Z,6.95
2019-01-22T22:08:10.212Z,6.99
2019-01-22T22:10:39.864Z,6.97
2019-01-22T22:13:09.435Z,6.98
2019-01-22T22:15:38.998Z,6.94
2019-01-22T22:18:08.565Z,6.91
2019-01-22T22:20:42.318Z,6.89
2019-01-22T22:23:09.391Z,6.85
2019-01-22T22:25:38.943Z,6.80
2019-01-22T22:28:15.013Z,6.78
2019-01-22T22:30:39.911Z,6.76
2019-01-22T22:33:09.577Z,6.78
2019-01-22T22:35:39.130Z,6.67
2019-01-22T22:38:08.695Z,6.48
2019-01-22T22:40:38.300Z,6.42
2019-01-22T22:43:07.861Z,6.30
2019-01-22T22:45:37.413Z,6.30
2019-01-22T22:48:07.160Z,6.19
2019-01-22T22:50:36.728Z,6.24
2019-01-22T22:53:06.273Z,6.24
2019-01-22T22:55:35.840Z,6.20
2019-01-22T22:58:05.393Z,6.14
2019-01-22T23:00:55.003Z,6.18
2019-01-22T23:03:24.549Z,6.21
2019-01-22T23:05:54.178Z,6.20
2019-01-22T23:08:23.743Z,6.20
2019-01-22T23:10:53.268Z,6.21
2019-01-22T23:13:22.821Z,6.15
2019-01-22T23:15:52.463Z,6.17
2019-01-22T23:18:22.102Z,6.23
2019-01-22T23:20:51.650Z,6.26
2019-01-22T23:23:21.239Z,6.30
2019-01-22T23:25:50.999Z,6.31
2019-01-22T23:28:20.615Z,6.32
2019-01-22T23:30:50.141Z,6.28
2019-01-22T23:33:19.691Z,6.27
2019-01-22T23:35:49.533Z,6.29
2019-01-22T23:38:19.069Z,6.33
2019-01-22T23:40:48.617Z,6.34
2019-01-22T23:43:18.157Z,6.26
2019-01-22T23:45:47.821Z,6.11
2019-01-22T23:48:17.504Z,6.03
2019-01-22T23:50:47.083Z,5.97
2019-01-22T23:53:16.654Z,5.82
2019-01-22T23:55:46.302Z,5.77
2019-01-22T23:58:15.868Z,5.78
